Tornetrask Lake, Sweden

6:31 AM CET on February 10, 2016 (GMT +0100)
Abisko Utsikten | | Change Station
CLOSE
Current Station
Personal Weather Station
Location: Abisko, KIRUNA
Elevation: 1200 ft
Nearby Weather Stations

Elev 1200 ft 68.35 °N, 18.83 °E | Updated 20 seconds ago

Light Snow
Light Snow
24.0 °F
Feels Like 24 °F
N
0.0
Wind Variable Wind from NW
Gusts 0.0 mph

Today
High -- | Low -- °F
--% Chance of Precip.
Yesterday
High -- | Low -- °F
Precip. -- in
Pressure 28.97 in
Visibility 4.3 miles
Clouds Overcast 1900 ft
Windchill 24 °F
Dew Point 23 °F
Humidity 96%
Rainfall 0.00 in
Snow Depth Not available.
8:24 AM 3:27 PM
Waxing Crescent, 4% visible
METAR ESNQ 100520Z 35005KT 7000 -SN OVC019 M04/M05 Q0981
Pressure 28.97 in
Visibility 4.3 miles
Clouds Overcast 1900 ft
Windchill 24 °F
Dew Point 23 °F
Humidity 96%
Rainfall 0.00 in
Snow Depth Not available.
8:24 AM 3:27 PM
Waxing Crescent, 4% visible
METAR ESNQ 100520Z 35005KT 7000 -SN OVC019 M04/M05 Q0981

10-Day Weather Forecast

Almanac

Astronomy

Feb. 10, 2016 Rise Set
Actual Time
Civil Twilight
Nautical Twilight
Astronomical Twilight
Moon
Length of Visible Light
Length of Day
Tomorrow will be .
, % of the Moon is Illuminated

Today's Extremes

Country Highs Country Lows

Community

WunderPhotos

Upload Photos

1,891,823 photos uploaded!

WunderBlog® & News

Nearby

Air Quality

  Air Quality AQ Index Pollutant
Not available.

Snow Depth

Station Depth Elevation

Earthquake Activity

City Distance Mag. Time & Date
Minimum magnitude displayed is 2.5.

Coastal Water Temperatures

Place Temperature

Stations

Nearby Weather Stations

Station Location Temp. Windchill Dew Point Humidity Wind Precip. Elev Updated Type